Time;durP1;ratioP1;P1;durP2;ratioP2;P2;SDS_P1;SDS_P2;PMS_P1;PMS_P2;Temp;Humidity;BMP_temperature;BMP_pressure;BME280_temperature;BME280_humidity;BME280_pressure;Samples;Min_cycle;Max_cycle;Signal;HPM_P1;HPM_P2
2021/12/18 00:01:17;;;;;;;3.73;2.73;;;3.90;99.90;;;;;;6219205;23;20030;-74
2021/12/18 00:03:43;;;;;;;3.27;2.53;;;4.00;99.90;;;;;;6219526;23;20008;-74
2021/12/18 00:06:09;;;;;;;3.87;2.33;;;4.10;99.90;;;;;;6246214;22;20425;-78
2021/12/18 00:08:36;;;;;;;5.43;3.00;;;4.20;99.90;;;;;;6219734;23;20086;-77
2021/12/18 00:11:02;;;;;;;2.70;2.50;;;4.20;99.90;;;;;;6246548;23;20370;-77
2021/12/18 00:13:27;;;;;;;3.87;2.80;;;4.10;99.90;;;;;;6246613;23;20023;-78
2021/12/18 00:15:54;;;;;;;2.67;2.30;;;4.20;99.90;;;;;;6246354;23;20351;-77
2021/12/18 00:18:20;;;;;;;2.13;1.80;;;4.20;99.90;;;;;;6246561;23;20071;-77
2021/12/18 00:20:47;;;;;;;2.33;1.93;;;4.30;99.90;;;;;;6246372;23;20008;-77
2021/12/18 00:23:13;;;;;;;2.47;2.10;;;4.30;99.90;;;;;;6219732;23;20429;-77
2021/12/18 00:25:39;;;;;;;2.33;2.13;;;4.40;99.90;;;;;;6219520;23;20015;-77
2021/12/18 00:28:05;;;;;;;3.03;2.72;;;4.40;99.90;;;;;;6246689;23;20000;-78
2021/12/18 00:30:33;;;;;;;3.35;2.40;;;4.30;99.90;;;;;;6246475;23;20004;-77
2021/12/18 00:32:59;;;;;;;3.97;3.53;;;4.20;99.90;;;;;;6219172;23;19996;-78
2021/12/18 00:35:25;;;;;;;6.68;4.00;;;4.20;99.90;;;;;;6246460;23;20055;-77
2021/12/18 00:37:51;;;;;;;3.57;3.27;;;3.90;99.90;;;;;;6219526;23;20439;-77
2021/12/18 00:40:24;;;;;;;5.43;4.13;;;3.80;99.90;;;;;;6219367;23;20062;-77
2021/12/18 00:43:02;;;;;;;8.02;5.05;;;3.80;99.90;;;;;;6246175;23;20081;-78
2021/12/18 00:45:29;;;;;;;8.83;5.30;;;3.80;99.90;;;;;;6219312;23;20008;-77
2021/12/18 00:47:56;;;;;;;6.27;4.60;;;3.70;99.90;;;;;;6219280;23;20011;-77
2021/12/18 00:50:25;;;;;;;8.98;5.35;;;3.70;99.90;;;;;;6219114;23;20089;-77
2021/12/18 00:52:51;;;;;;;7.30;5.23;;;3.70;99.90;;;;;;6219129;23;20004;-77
2021/12/18 00:55:20;;;;;;;4.80;3.90;;;3.60;99.90;;;;;;6245722;23;20026;-77
2021/12/18 00:57:47;;;;;;;3.50;3.20;;;3.50;99.90;;;;;;6246114;23;20493;-78
2021/12/18 01:00:16;;;;;;;4.40;3.30;;;3.50;99.90;;;;;;6245832;23;20030;-77
2021/12/18 01:02:44;;;;;;;4.17;3.10;;;3.40;99.90;;;;;;6245920;23;20149;-78
2021/12/18 01:05:11;;;;;;;2.87;2.40;;;3.30;99.90;;;;;;6245940;23;20005;-77
2021/12/18 01:07:37;;;;;;;3.93;2.60;;;3.40;99.90;;;;;;6246023;23;20003;-78
2021/12/18 01:10:26;;;;;;;3.43;2.87;;;3.50;99.90;;;;;;6245896;23;20026;-77
2021/12/18 01:12:55;;;;;;;2.53;2.33;;;3.50;99.90;;;;;;6245937;23;20004;-77
2021/12/18 01:15:30;;;;;;;3.60;3.13;;;3.70;99.90;;;;;;6218873;23;20004;-77
2021/12/18 01:23:26;;;;;;;4.27;2.70;;;3.70;99.90;;;;;;6245850;23;20077;-77
2021/12/18 01:25:54;;;;;;;2.97;2.67;;;3.80;99.90;;;;;;6245531;23;20042;-77
2021/12/18 01:28:19;;;;;;;4.77;3.70;;;3.70;99.90;;;;;;6245897;23;20003;-77
2021/12/18 01:30:46;;;;;;;4.23;3.67;;;3.50;99.90;;;;;;6245635;23;20000;-77
2021/12/18 01:33:11;;;;;;;3.60;3.30;;;3.40;99.90;;;;;;6245761;23;20439;-78
2021/12/18 01:35:37;;;;;;;6.00;4.17;;;3.20;99.90;;;;;;6245428;23;20011;-78
2021/12/18 01:38:04;;;;;;;5.20;4.47;;;3.20;99.90;;;;;;6245375;23;20000;-77
2021/12/18 01:40:30;;;;;;;6.93;5.30;;;3.20;99.90;;;;;;6245581;23;20397;-78
2021/12/18 01:53:53;;;;;;;5.13;4.13;;;3.80;99.90;;;;;;6245550;23;20063;-77
2021/12/18 01:56:20;;;;;;;4.15;3.20;;;3.70;99.90;;;;;;6245594;23;20004;-78
2021/12/18 01:58:46;;;;;;;3.27;2.97;;;3.70;99.90;;;;;;6245410;23;20487;-78
2021/12/18 02:01:13;;;;;;;4.43;3.50;;;3.70;99.90;;;;;;6245356;23;20027;-78
2021/12/18 02:03:39;;;;;;;4.23;3.30;;;3.70;99.90;;;;;;6245663;23;20353;-77
2021/12/18 02:06:05;;;;;;;3.67;3.37;;;3.70;99.90;;;;;;6218544;23;20007;-77
2021/12/18 02:08:33;;;;;;;3.97;2.93;;;3.60;99.90;;;;;;6245568;23;20038;-77
2021/12/18 02:11:11;;;;;;;3.27;2.80;;;3.60;99.90;;;;;;6245481;23;20023;-77
2021/12/18 02:21:35;;;;;;;1.83;1.73;;;4.00;99.90;;;;;;6245536;23;20019;-77
2021/12/18 02:24:01;;;;;;;2.13;1.70;;;4.10;99.90;;;;;;6245470;23;20004;-77
2021/12/18 02:26:27;;;;;;;3.43;2.70;;;4.20;99.90;;;;;;6218384;23;20040;-77
2021/12/18 02:28:56;;;;;;;3.80;3.03;;;4.10;99.90;;;;;;6245639;23;20050;-78
2021/12/18 02:31:22;;;;;;;4.17;3.20;;;4.00;99.90;;;;;;6245330;23;20004;-78
2021/12/18 02:33:48;;;;;;;3.90;3.60;;;4.00;99.90;;;;;;6245558;23;20375;-77
2021/12/18 02:36:22;;;;;;;6.50;4.10;;;4.00;99.90;;;;;;6245351;23;20030;-78
2021/12/18 02:43:49;;;;;;;4.80;3.83;;;3.60;99.90;;;;;;6246203;23;20043;-78
2021/12/18 02:46:19;;;;;;;4.40;4.00;;;3.60;99.90;;;;;;6218362;23;20011;-77
2021/12/18 02:48:49;;;;;;;6.23;5.17;;;3.60;99.90;;;;;;6218599;23;20004;-77
2021/12/18 02:51:16;;;;;;;7.40;6.23;;;3.60;99.90;;;;;;6245139;23;20003;-78
2021/12/18 02:53:44;;;;;;;7.37;4.63;;;3.70;99.90;;;;;;6245498;23;20031;-78
2021/12/18 02:56:11;;;;;;;7.27;4.77;;;3.50;99.90;;;;;;6246643;23;20023;-78
2021/12/18 02:58:40;;;;;;;6.80;5.17;;;3.50;99.90;;;;;;6247396;23;20075;-78
2021/12/18 03:01:08;;;;;;;8.27;5.67;;;3.40;99.90;;;;;;6247113;23;20008;-77
2021/12/18 03:03:37;;;;;;;9.63;6.30;;;3.30;99.90;;;;;;6247322;23;20007;-77
2021/12/18 03:25:09;;;;;;;8.27;5.83;;;3.30;99.90;;;;;;6247071;23;20437;-77
2021/12/18 03:27:35;;;;;;;6.97;5.80;;;3.30;99.90;;;;;;6220143;23;20007;-78
2021/12/18 03:30:01;;;;;;;8.83;5.87;;;3.20;99.90;;;;;;6220069;23;20004;-78
2021/12/18 03:32:27;;;;;;;8.40;5.63;;;3.20;99.90;;;;;;6246931;23;20000;-78
2021/12/18 03:34:53;;;;;;;8.53;5.50;;;3.00;99.90;;;;;;6246900;23;19996;-78
2021/12/18 03:37:20;;;;;;;6.27;5.07;;;2.90;99.90;;;;;;6246785;23;20007;-77
2021/12/18 03:39:46;;;;;;;5.37;4.23;;;2.90;99.90;;;;;;6246659;23;19996;-77
2021/12/18 03:42:13;;;;;;;4.53;3.77;;;2.80;99.90;;;;;;6219819;23;20095;-77
2021/12/18 03:44:39;;;;;;;4.83;4.20;;;2.80;99.90;;;;;;6219826;23;20007;-77
2021/12/18 03:47:06;;;;;;;5.03;3.90;;;2.80;99.90;;;;;;6220066;23;20027;-77
2021/12/18 03:49:32;;;;;;;5.20;4.33;;;2.80;99.90;;;;;;6246605;23;20000;-77
2021/12/18 03:51:58;;;;;;;5.37;4.30;;;2.90;99.90;;;;;;6246740;23;20103;-77
2021/12/18 03:54:24;;;;;;;7.23;4.60;;;2.90;99.90;;;;;;6247035;23;20036;-77
2021/12/18 03:56:49;;;;;;;5.97;4.17;;;2.90;99.90;;;;;;6246644;23;20001;-78
2021/12/18 03:59:16;;;;;;;4.20;3.63;;;3.00;99.90;;;;;;6219572;23;20083;-78
2021/12/18 04:01:41;;;;;;;6.63;5.00;;;3.10;99.90;;;;;;6219235;23;20062;-78
2021/12/18 04:04:07;;;;;;;6.33;5.40;;;3.10;99.90;;;;;;6246618;23;20008;-78
2021/12/18 04:06:33;;;;;;;10.67;7.10;;;3.20;99.90;;;;;;6246043;23;20625;-77
2021/12/18 04:08:59;;;;;;;21.53;12.97;;;3.10;99.90;;;;;;6219803;23;20454;-77
2021/12/18 04:11:25;;;;;;;22.60;14.40;;;3.00;99.90;;;;;;6246630;23;20079;-78
2021/12/18 04:13:50;;;;;;;20.03;14.27;;;3.00;99.90;;;;;;6219751;23;20075;-77
2021/12/18 04:16:18;;;;;;;24.10;14.37;;;2.90;99.90;;;;;;6246592;23;20028;-77
2021/12/18 04:18:44;;;;;;;27.73;16.53;;;2.70;99.90;;;;;;6246603;23;20046;-78
2021/12/18 04:21:10;;;;;;;27.63;17.77;;;2.60;99.90;;;;;;6246467;23;20008;-78
2021/12/18 04:23:35;;;;;;;24.80;16.07;;;2.50;99.90;;;;;;6246493;23;20012;-77
2021/12/18 04:26:01;;;;;;;26.37;15.87;;;2.40;99.90;;;;;;6246307;23;20332;-77
2021/12/18 04:28:27;;;;;;;28.00;17.40;;;2.30;99.90;;;;;;6219620;23;20035;-77
2021/12/18 04:30:54;;;;;;;28.57;18.10;;;2.30;99.90;;;;;;6246183;23;20387;-77
2021/12/18 04:33:20;;;;;;;28.60;16.90;;;2.30;99.90;;;;;;6246283;23;20004;-77
2021/12/18 04:35:46;;;;;;;28.37;18.13;;;2.30;99.90;;;;;;6246364;23;20034;-77
2021/12/18 04:38:12;;;;;;;23.23;15.83;;;2.40;99.90;;;;;;6246405;23;20004;-77
2021/12/18 04:40:38;;;;;;;23.20;15.60;;;2.30;99.90;;;;;;6246180;23;20007;-78
2021/12/18 04:43:04;;;;;;;27.27;16.67;;;2.20;99.90;;;;;;6246061;23;20019;-78
2021/12/18 04:45:30;;;;;;;24.83;16.90;;;2.20;99.90;;;;;;6219149;23;20008;-77
2021/12/18 04:47:56;;;;;;;24.80;15.77;;;2.30;99.90;;;;;;6246325;23;20320;-78
2021/12/18 04:50:23;;;;;;;22.50;14.97;;;2.20;99.90;;;;;;6219345;23;20000;-78
2021/12/18 04:52:49;;;;;;;19.13;11.50;;;2.20;99.90;;;;;;6219253;23;20004;-77
2021/12/18 04:55:15;;;;;;;18.03;12.67;;;2.20;99.90;;;;;;6246173;23;20047;-78
2021/12/18 04:57:41;;;;;;;20.80;13.53;;;2.10;99.90;;;;;;6246296;23;20348;-78
2021/12/18 05:00:10;;;;;;;16.30;11.57;;;2.10;99.90;;;;;;6219218;23;20004;-78
2021/12/18 05:02:40;;;;;;;14.43;9.70;;;2.10;99.90;;;;;;6219249;23;20011;-78
2021/12/18 05:05:07;;;;;;;9.93;7.07;;;2.10;99.90;;;;;;6245908;23;20614;-77
2021/12/18 05:07:33;;;;;;;9.43;6.67;;;2.30;99.90;;;;;;6219047;23;20007;-77
2021/12/18 05:09:59;;;;;;;11.80;7.57;;;2.30;99.90;;;;;;6245847;23;20490;-77
2021/12/18 05:12:26;;;;;;;9.17;7.40;;;2.20;99.90;;;;;;6245898;23;20030;-78
2021/12/18 05:14:52;;;;;;;11.07;8.47;;;2.20;99.90;;;;;;6246037;23;20000;-77
2021/12/18 05:17:17;;;;;;;14.97;9.13;;;2.20;99.90;;;;;;6219084;23;20337;-77
2021/12/18 05:19:43;;;;;;;13.17;9.13;;;2.10;99.90;;;;;;6218959;23;20000;-77
2021/12/18 05:22:09;;;;;;;12.73;9.30;;;2.00;99.90;;;;;;6218957;23;20000;-77
2021/12/18 05:24:35;;;;;;;15.33;10.03;;;2.00;99.90;;;;;;6245849;23;20020;-77
2021/12/18 05:27:01;;;;;;;13.20;9.90;;;2.00;99.90;;;;;;6245741;23;20031;-77
2021/12/18 05:29:27;;;;;;;13.43;8.97;;;2.00;99.90;;;;;;6245592;23;20429;-77
2021/12/18 05:31:53;;;;;;;14.13;9.93;;;1.90;99.90;;;;;;6245680;23;19996;-77
2021/12/18 05:34:22;;;;;;;17.03;10.70;;;1.90;99.90;;;;;;6245841;23;20434;-77
2021/12/18 05:39:22;;;;;;;14.73;9.63;;;1.90;99.90;;;;;;6245771;23;20043;-77
2021/12/18 05:41:50;;;;;;;11.73;7.80;;;1.80;99.90;;;;;;6218797;23;20085;-77
2021/12/18 05:44:17;;;;;;;11.90;7.17;;;1.90;99.90;;;;;;6245414;23;20016;-77
2021/12/18 05:46:45;;;;;;;7.37;5.80;;;1.90;99.90;;;;;;6245689;23;20011;-77
2021/12/18 05:49:11;;;;;;;7.83;5.83;;;1.90;99.90;;;;;;6245551;23;19996;-77
2021/12/18 05:51:37;;;;;;;6.07;5.23;;;2.00;99.90;;;;;;6245809;23;20000;-78
2021/12/18 05:54:04;;;;;;;6.60;5.37;;;2.00;99.90;;;;;;6245257;23;20008;-78
2021/12/18 05:56:30;;;;;;;7.10;4.17;;;2.00;99.90;;;;;;6245071;23;20028;-78
2021/12/18 05:58:57;;;;;;;5.40;4.13;;;2.10;99.90;;;;;;6245348;23;20032;-78
2021/12/18 06:01:23;;;;;;;9.07;4.30;;;2.00;99.90;;;;;;6245688;23;20058;-78
2021/12/18 06:03:49;;;;;;;4.57;3.83;;;2.10;99.90;;;;;;6245566;23;20079;-78
2021/12/18 06:06:15;;;;;;;4.33;3.73;;;2.20;99.90;;;;;;6218759;23;20039;-78
2021/12/18 06:08:42;;;;;;;4.07;3.57;;;2.30;99.90;;;;;;6245483;23;20001;-78
2021/12/18 06:11:17;;;;;;;4.53;3.87;;;2.30;99.90;;;;;;6245543;23;20336;-78
2021/12/18 06:13:44;;;;;;;4.10;3.47;;;2.30;99.90;;;;;;6245551;23;20008;-77
2021/12/18 06:16:10;;;;;;;3.87;3.47;;;2.30;99.90;;;;;;6218564;23;20011;-78
2021/12/18 06:18:42;;;;;;;4.30;3.63;;;2.30;99.90;;;;;;6245580;23;20448;-77
2021/12/18 06:21:13;;;;;;;4.13;3.38;;;2.30;99.90;;;;;;6245680;23;20432;-78
2021/12/18 06:23:42;;;;;;;2.53;2.33;;;2.40;99.90;;;;;;6245614;23;20444;-77
2021/12/18 06:26:08;;;;;;;3.73;2.73;;;2.50;99.90;;;;;;6245321;23;20332;-77
2021/12/18 06:28:34;;;;;;;2.77;2.57;;;2.60;99.90;;;;;;6245567;23;20075;-78
2021/12/18 06:31:01;;;;;;;3.87;2.80;;;2.70;99.90;;;;;;6246705;23;20371;-77
2021/12/18 06:33:28;;;;;;;2.70;2.37;;;2.70;99.90;;;;;;6220248;23;20000;-78
2021/12/18 06:35:54;;;;;;;2.43;2.20;;;2.70;99.90;;;;;;6220277;23;20008;-77
2021/12/18 06:38:20;;;;;;;3.53;2.80;;;2.80;99.90;;;;;;6247060;23;20336;-77
2021/12/18 06:40:46;;;;;;;3.53;2.90;;;2.80;99.90;;;;;;6247234;23;20010;-77
2021/12/18 06:43:11;;;;;;;3.00;2.80;;;2.80;99.90;;;;;;6220100;23;20027;-78
2021/12/18 06:45:37;;;;;;;2.73;2.50;;;2.90;99.90;;;;;;6247347;23;20000;-78
2021/12/18 06:48:03;;;;;;;2.80;2.60;;;3.00;99.90;;;;;;6247410;23;20004;-77
2021/12/18 06:50:29;;;;;;;2.27;2.00;;;3.00;99.90;;;;;;6247251;23;20050;-77
2021/12/18 06:52:55;;;;;;;2.80;2.40;;;3.10;99.90;;;;;;6220490;23;20008;-78
2021/12/18 06:55:21;;;;;;;3.33;3.03;;;3.10;99.90;;;;;;6220091;23;20008;-78
2021/12/18 06:57:49;;;;;;;3.10;2.80;;;3.10;99.90;;;;;;6246831;23;20070;-77
2021/12/18 07:00:17;;;;;;;2.87;2.60;;;3.10;99.90;;;;;;6246895;23;20007;-77
2021/12/18 07:02:43;;;;;;;3.33;3.00;;;3.10;99.90;;;;;;6246842;23;20463;-77
2021/12/18 07:05:10;;;;;;;4.40;3.10;;;3.10;99.90;;;;;;6220234;23;20011;-77
2021/12/18 07:07:36;;;;;;;4.97;3.20;;;3.10;99.90;;;;;;6220134;23;20459;-77
2021/12/18 07:10:04;;;;;;;4.80;4.03;;;3.20;99.90;;;;;;6247058;23;20432;-77
2021/12/18 07:12:30;;;;;;;7.43;4.80;;;3.20;99.90;;;;;;6247219;23;20000;-77
2021/12/18 07:14:56;;;;;;;7.97;5.17;;;3.00;99.90;;;;;;6247185;23;20368;-77
2021/12/18 07:17:21;;;;;;;6.93;6.03;;;3.00;99.90;;;;;;6247158;23;20463;-77
2021/12/18 07:19:47;;;;;;;6.87;5.23;;;2.90;99.90;;;;;;6246668;23;20050;-77
2021/12/18 07:22:13;;;;;;;5.80;5.20;;;3.00;99.90;;;;;;6246951;23;20447;-77
2021/12/18 07:24:39;;;;;;;7.50;6.43;;;2.90;99.90;;;;;;6247047;23;19996;-77
2021/12/18 07:27:04;;;;;;;8.20;6.00;;;2.80;99.90;;;;;;6246778;23;20069;-78
2021/12/18 07:29:30;;;;;;;9.23;6.43;;;2.70;99.90;;;;;;6246958;23;20426;-78
2021/12/18 07:31:56;;;;;;;10.63;6.83;;;2.60;99.90;;;;;;6220205;23;20000;-78
2021/12/18 07:34:22;;;;;;;13.40;7.97;;;2.60;99.90;;;;;;6220082;23;20004;-77
2021/12/18 07:36:48;;;;;;;10.13;6.97;;;2.60;99.90;;;;;;6246886;23;20004;-78
2021/12/18 07:39:13;;;;;;;13.20;9.47;;;2.60;99.90;;;;;;6219957;23;20011;-77
2021/12/18 07:41:39;;;;;;;15.63;8.57;;;2.70;99.90;;;;;;6246294;23;20042;-77
2021/12/18 07:44:08;;;;;;;10.33;7.53;;;2.60;99.90;;;;;;6246689;23;20348;-77
2021/12/18 07:46:36;;;;;;;13.40;8.47;;;2.50;99.90;;;;;;6246784;23;20004;-77
2021/12/18 07:49:03;;;;;;;5.80;5.10;;;2.60;99.90;;;;;;6246825;23;20006;-78
2021/12/18 07:51:29;;;;;;;4.50;3.73;;;2.70;99.90;;;;;;6246526;23;20050;-78
2021/12/18 07:53:55;;;;;;;5.97;4.47;;;2.80;99.90;;;;;;6219753;23;20436;-76
2021/12/18 07:56:21;;;;;;;5.00;4.47;;;3.00;99.90;;;;;;6246673;23;20454;-77
2021/12/18 07:58:47;;;;;;;6.00;4.33;;;3.10;99.90;;;;;;6246732;23;20000;-77
2021/12/18 08:01:13;;;;;;;4.93;4.37;;;3.20;99.90;;;;;;6246736;23;20309;-77
2021/12/18 08:03:42;;;;;;;8.33;4.30;;;3.20;99.90;;;;;;6219436;23;20033;-77
2021/12/18 08:06:08;;;;;;;4.80;4.27;;;3.30;99.90;;;;;;6245335;23;20607;-77
2021/12/18 08:08:34;;;;;;;5.57;3.97;;;3.40;99.90;;;;;;6218439;23;20027;-75
2021/12/18 08:11:00;;;;;;;5.27;4.27;;;3.50;99.90;;;;;;6245064;23;20071;-74
2021/12/18 08:13:26;;;;;;;4.63;3.93;;;3.50;99.90;;;;;;6218400;23;20032;-75
2021/12/18 08:15:51;;;;;;;5.97;4.47;;;3.60;99.90;;;;;;6245973;23;20004;-75
2021/12/18 08:18:18;;;;;;;5.50;4.53;;;3.70;99.90;;;;;;6218276;23;20432;-76
2021/12/18 08:20:44;;;;;;;7.80;4.73;;;3.80;99.90;;;;;;6245761;23;20098;-76
2021/12/18 08:23:10;;;;;;;6.27;4.00;;;3.80;99.90;;;;;;6218934;23;20032;-77
2021/12/18 08:25:37;;;;;;;4.80;4.03;;;3.90;99.90;;;;;;6245536;23;20004;-76
2021/12/18 08:28:04;;;;;;;5.40;4.00;;;4.00;99.90;;;;;;6245120;23;20004;-77
2021/12/18 08:30:32;;;;;;;6.73;4.67;;;4.00;99.90;;;;;;6245705;22;20050;-76
2021/12/18 08:32:59;;;;;;;5.93;4.43;;;4.10;99.90;;;;;;6246008;23;20087;-76
2021/12/18 08:35:29;;;;;;;6.80;4.57;;;4.20;99.90;;;;;;6219356;23;20008;-76
2021/12/18 08:37:56;;;;;;;6.97;5.20;;;4.20;99.90;;;;;;6245486;23;20091;-76
2021/12/18 08:40:23;;;;;;;6.68;4.72;;;4.30;99.90;;;;;;6245761;23;20105;-76
2021/12/18 08:42:48;;;;;;;7.43;5.77;;;4.40;99.90;;;;;;6244858;23;20047;-75
2021/12/18 08:45:15;;;;;;;6.67;5.53;;;4.50;99.90;;;;;;6217713;23;20424;-74
2021/12/18 08:47:41;;;;;;;6.93;5.60;;;4.60;99.90;;;;;;6245370;23;20003;-74
2021/12/18 08:50:10;;;;;;;5.22;4.72;;;4.70;99.90;;;;;;6245736;23;20054;-74
2021/12/18 08:52:36;;;;;;;7.72;5.88;;;4.70;99.90;;;;;;6245002;23;19996;-74
2021/12/18 08:55:03;;;;;;;8.85;5.30;;;4.80;99.90;;;;;;6246020;23;20071;-76
2021/12/18 08:57:28;;;;;;;7.70;5.38;;;4.90;99.90;;;;;;6246190;23;20003;-77
2021/12/18 08:59:54;;;;;;;4.90;4.38;;;4.90;99.90;;;;;;6246106;23;20000;-76
2021/12/18 09:02:20;;;;;;;7.22;5.10;;;5.00;99.90;;;;;;6246148;23;20333;-77
2021/12/18 09:04:45;;;;;;;8.68;5.30;;;5.00;99.90;;;;;;6246160;23;20000;-77
2021/12/18 09:07:11;;;;;;;8.35;5.60;;;5.10;99.90;;;;;;6218917;23;20004;-77
2021/12/18 09:09:39;;;;;;;5.35;4.28;;;5.10;99.90;;;;;;6246045;23;20000;-76
2021/12/18 09:12:06;;;;;;;7.85;5.10;;;5.20;99.90;;;;;;6219116;23;20012;-77
2021/12/18 09:14:32;;;;;;;7.72;5.53;;;5.30;99.90;;;;;;6245962;23;20329;-77
2021/12/18 09:16:57;;;;;;;6.50;5.45;;;5.30;99.90;;;;;;6245653;23;20004;-77
2021/12/18 09:19:23;;;;;;;6.63;4.75;;;5.40;99.90;;;;;;6218314;23;20008;-77
2021/12/18 09:21:49;;;;;;;6.97;4.85;;;5.40;99.90;;;;;;6245731;23;20329;-76
2021/12/18 09:24:15;;;;;;;6.18;5.35;;;5.50;99.90;;;;;;6245744;23;20008;-77
2021/12/18 09:26:40;;;;;;;12.93;5.35;;;5.60;99.90;;;;;;6218733;23;20004;-76
2021/12/18 09:29:06;;;;;;;7.80;5.18;;;5.60;99.90;;;;;;6245620;23;19996;-76
2021/12/18 09:31:32;;;;;;;7.07;5.63;;;5.70;99.90;;;;;;6218827;23;20058;-77
2021/12/18 09:33:57;;;;;;;8.52;4.90;;;5.70;99.90;;;;;;6245805;23;20070;-76
2021/12/18 09:36:23;;;;;;;8.25;5.75;;;5.80;99.90;;;;;;6245846;23;20027;-76
2021/12/18 09:38:49;;;;;;;8.10;5.63;;;5.80;99.90;;;;;;6245655;23;20030;-76
2021/12/18 09:41:15;;;;;;;8.55;5.95;;;5.80;99.90;;;;;;6218831;23;20466;-77
2021/12/18 09:43:41;;;;;;;7.13;5.68;;;5.90;99.90;;;;;;6245696;23;20078;-77
2021/12/18 09:46:12;;;;;;;8.32;5.38;;;6.00;99.90;;;;;;6245475;23;20000;-77
2021/12/18 09:48:40;;;;;;;12.38;6.60;;;6.00;99.90;;;;;;6245687;23;20332;-77
2021/12/18 09:51:14;;;;;;;10.70;6.57;;;6.10;99.90;;;;;;6218809;23;20090;-77
2021/12/18 09:53:41;;;;;;;7.78;6.18;;;6.10;99.90;;;;;;6245656;23;20363;-77
2021/12/18 09:56:07;;;;;;;11.73;7.05;;;6.20;99.90;;;;;;6218693;23;20344;-76
2021/12/18 09:58:34;;;;;;;12.52;7.28;;;6.20;99.90;;;;;;6245500;23;20059;-78
2021/12/18 10:01:00;;;;;;;10.45;6.50;;;6.30;99.90;;;;;;6245814;23;20444;-77
2021/12/18 10:03:43;;;;;;;8.43;6.40;;;6.30;99.90;;;;;;6245712;23;20444;-77
2021/12/18 10:06:36;;;;;;;14.45;8.68;;;6.40;99.90;;;;;;6218564;23;20004;-78
2021/12/18 10:09:13;;;;;;;19.70;11.55;;;6.50;99.90;;;;;;6245527;23;20051;-78
2021/12/18 10:11:47;;;;;;;21.50;9.90;;;6.70;99.90;;;;;;6245525;23;20075;-77
2021/12/18 10:14:15;;;;;;;14.52;8.02;;;6.90;99.90;;;;;;6245567;23;20388;-77
2021/12/18 10:16:48;;;;;;;18.45;8.25;;;6.90;99.90;;;;;;6245548;23;20008;-78
2021/12/18 10:19:29;;;;;;;13.55;7.55;;;7.10;99.90;;;;;;6218531;23;20127;-77
2021/12/18 10:22:06;;;;;;;17.15;7.93;;;7.10;99.90;;;;;;6245408;23;20000;-78
2021/12/18 10:24:34;;;;;;;16.70;7.57;;;7.10;99.90;;;;;;6245693;23;20012;-77
2021/12/18 10:27:01;;;;;;;16.38;7.75;;;7.30;99.90;;;;;;6245397;23;20008;-77
2021/12/18 10:29:34;;;;;;;14.77;7.13;;;7.40;99.90;;;;;;6245439;23;20336;-78
2021/12/18 10:32:15;;;;;;;16.27;7.05;;;7.50;99.90;;;;;;6245421;23;20079;-78
2021/12/18 10:34:49;;;;;;;26.55;12.40;;;7.40;99.90;;;;;;6218583;23;20004;-78
2021/12/18 10:37:18;;;;;;;25.50;8.98;;;7.60;99.90;;;;;;6218668;23;20004;-78
2021/12/18 10:39:57;;;;;;;14.23;7.80;;;7.70;99.90;;;;;;6245363;23;20007;-78
2021/12/18 10:42:34;;;;;;;14.70;6.68;;;7.80;99.90;;;;;;6245296;23;20012;-78
2021/12/18 10:45:02;;;;;;;12.77;7.20;;;7.90;99.90;;;;;;6245356;23;20428;-75
2021/12/18 10:47:43;;;;;;;21.60;9.55;;;7.90;99.90;;;;;;6245260;23;20005;-78
2021/12/18 10:50:19;;;;;;;15.55;8.90;;;8.00;99.90;;;;;;6218635;23;20031;-78
2021/12/18 10:52:51;;;;;;;18.15;7.82;;;8.00;99.90;;;;;;6245446;23;20008;-78
2021/12/18 10:55:17;;;;;;;26.00;9.25;;;8.00;99.90;;;;;;6245326;23;20054;-78
2021/12/18 10:57:53;;;;;;;16.85;7.18;;;8.00;99.90;;;;;;6218441;23;20379;-78
2021/12/18 11:00:32;;;;;;;23.55;8.15;;;8.10;99.90;;;;;;6245286;23;20055;-78
2021/12/18 11:02:57;;;;;;;19.98;8.85;;;8.10;99.90;;;;;;6218528;23;20008;-76
2021/12/18 11:05:23;;;;;;;17.45;9.30;;;8.20;99.90;;;;;;6218298;23;20081;-76
2021/12/18 11:08:10;;;;;;;18.80;9.43;;;8.30;99.90;;;;;;6245340;23;20420;-76
2021/12/18 11:10:42;;;;;;;17.42;10.82;;;8.40;99.90;;;;;;6245274;23;19996;-77
2021/12/18 11:15:52;;;;;;;20.25;9.80;;;8.50;99.90;;;;;;6245597;23;20034;-78
2021/12/18 11:18:19;;;;;;;19.63;9.82;;;8.50;99.90;;;;;;6247385;23;19995;-77
2021/12/18 11:20:49;;;;;;;17.45;10.82;;;8.60;99.90;;;;;;6247093;23;20462;-78
2021/12/18 11:23:21;;;;;;;21.80;10.35;;;8.70;99.90;;;;;;6247077;23;20015;-78
2021/12/18 11:25:48;;;;;;;18.10;10.85;;;8.80;99.90;;;;;;6247021;23;20004;-78
2021/12/18 11:28:15;;;;;;;22.70;10.52;;;8.90;99.90;;;;;;6246956;23;19996;-78
2021/12/18 11:30:41;;;;;;;17.65;10.27;;;8.90;99.90;;;;;;6246966;23;20293;-78
2021/12/18 11:33:07;;;;;;;18.95;10.48;;;9.00;99.90;;;;;;6246992;23;20000;-78
2021/12/18 11:35:35;;;;;;;20.63;10.38;;;9.10;99.90;;;;;;6246889;23;20313;-77
2021/12/18 11:38:07;;;;;;;20.70;10.32;;;9.10;99.90;;;;;;6246930;23;20015;-78
2021/12/18 11:40:36;;;;;;;20.50;10.83;;;9.00;99.90;;;;;;6246736;23;20007;-78
2021/12/18 11:43:30;;;;;;;18.70;9.95;;;9.10;99.90;;;;;;6246823;23;20247;-78
2021/12/18 11:45:56;;;;;;;22.58;10.02;;;9.10;99.90;;;;;;6243088;23;20043;-78
2021/12/18 11:48:22;;;;;;;18.42;9.88;;;9.10;99.90;;;;;;6245314;23;20004;-77
2021/12/18 11:50:48;;;;;;;17.10;10.45;;;9.10;99.90;;;;;;6246744;23;20075;-78
2021/12/18 11:53:19;;;;;;;20.17;10.60;;;9.10;99.90;;;;;;6220051;23;20004;-78
2021/12/18 11:55:51;;;;;;;21.85;11.25;;;9.20;99.90;;;;;;6246697;23;19996;-77
2021/12/18 11:58:17;;;;;;;21.73;13.20;;;9.20;99.90;;;;;;6246564;23;20010;-77
2021/12/18 12:00:51;;;;;;;19.60;12.48;;;9.10;99.90;;;;;;6246750;23;20086;-78
2021/12/18 12:03:32;;;;;;;28.95;13.85;;;9.20;99.90;;;;;;6246876;23;20004;-78
2021/12/18 12:06:00;;;;;;;25.90;14.10;;;9.20;99.90;;;;;;6246560;23;20000;-78
2021/12/18 12:08:40;;;;;;;26.45;14.80;;;9.10;99.90;;;;;;6246633;23;20058;-77
2021/12/18 12:11:07;;;;;;;25.73;12.52;;;9.10;99.90;;;;;;6219819;23;20001;-78
2021/12/18 12:13:53;;;;;;;31.95;13.95;;;9.10;99.90;;;;;;6246469;23;20075;-78
2021/12/18 12:16:38;;;;;;;25.85;15.40;;;9.10;99.90;;;;;;6199089;23;20086;-77
2021/12/18 12:19:07;;;;;;;27.90;15.88;;;9.20;99.90;;;;;;6219465;23;20502;-76
2021/12/18 12:21:39;;;;;;;23.98;14.93;;;9.20;99.90;;;;;;6246564;23;20004;-78
2021/12/18 12:24:06;;;;;;;27.52;16.35;;;9.20;99.90;;;;;;6219579;23;20489;-78
2021/12/18 12:26:31;;;;;;;32.78;18.48;;;9.10;99.90;;;;;;6219348;23;20087;-77
2021/12/18 12:28:57;;;;;;;31.58;16.65;;;9.20;99.90;;;;;;6246031;23;20028;-75
2021/12/18 12:31:23;;;;;;;29.02;16.75;;;9.20;99.90;;;;;;6219617;23;20343;-76
2021/12/18 12:33:50;;;;;;;26.15;17.17;;;9.10;99.90;;;;;;6246388;23;20000;-75
2021/12/18 12:36:24;;;;;;;30.17;18.10;;;9.10;99.90;;;;;;6245110;23;20011;-78
2021/12/18 12:38:59;;;;;;;32.90;17.10;;;9.10;99.90;;;;;;6246496;23;20007;-77
2021/12/18 12:41:32;;;;;;;24.30;15.65;;;9.10;99.90;;;;;;6246581;23;20462;-77
2021/12/18 12:44:17;;;;;;;32.80;18.30;;;9.10;99.90;;;;;;6246026;23;20019;-77
2021/12/18 12:46:45;;;;;;;29.27;17.77;;;9.10;99.90;;;;;;6219050;23;20008;-77
2021/12/18 12:49:12;;;;;;;32.42;17.25;;;9.10;99.90;;;;;;6245864;23;19996;-76
2021/12/18 12:52:16;;;;;;;13.95;10.15;;;9.10;99.90;;;;;;6245609;23;20000;-74
2021/12/18 12:54:45;;;;;;;20.80;12.95;;;9.20;99.90;;;;;;6227539;23;20008;-75
2021/12/18 12:57:31;;;;;;;25.27;15.13;;;9.20;99.90;;;;;;6245952;23;20053;-77
2021/12/18 13:00:06;;;;;;;27.45;13.88;;;9.30;99.90;;;;;;6245718;23;20058;-76
2021/12/18 13:02:38;;;;;;;23.55;14.02;;;9.30;99.90;;;;;;6245971;23;20083;-76
2021/12/18 13:05:10;;;;;;;24.35;13.25;;;9.20;99.90;;;;;;6245797;23;20073;-76
2021/12/18 13:07:48;;;;;;;22.10;13.48;;;9.30;99.90;;;;;;6219080;23;20515;-77
2021/12/18 13:10:25;;;;;;;27.20;14.43;;;9.30;99.90;;;;;;6218901;23;20008;-77
2021/12/18 13:12:59;;;;;;;25.33;14.98;;;9.30;99.90;;;;;;6246113;23;20003;-76
2021/12/18 13:15:26;;;;;;;32.28;15.98;;;9.30;99.90;;;;;;6245969;23;20599;-80
2021/12/18 13:18:08;;;;;;;23.92;14.10;;;9.30;99.90;;;;;;6245938;23;20015;-80
2021/12/18 13:20:41;;;;;;;;;;;9.30;99.90;;;;;;6219600;23;20011;-80
2021/12/18 13:23:07;;;;;;;29.27;15.10;;;9.20;99.90;;;;;;6245939;23;19934;-80
2021/12/18 13:25:33;;;;;;;24.33;15.30;;;9.20;99.90;;;;;;6245918;23;20001;-80
2021/12/18 13:28:04;;;;;;;24.90;14.15;;;9.10;99.90;;;;;;6245900;23;20335;-80
2021/12/18 13:30:35;;;;;;;28.60;16.33;;;9.10;99.90;;;;;;6218989;23;20007;-80
2021/12/18 13:33:06;;;;;;;26.45;14.82;;;9.10;99.90;;;;;;6218965;23;20035;-80
2021/12/18 13:35:33;;;;;;;32.47;16.38;;;9.00;99.90;;;;;;6245555;23;20000;-80
2021/12/18 13:38:17;;;;;;;28.17;16.08;;;9.00;99.90;;;;;;6245846;23;20016;-80
2021/12/18 13:40:46;;;;;;;24.50;14.77;;;9.00;99.90;;;;;;6245311;23;20008;-80
2021/12/18 13:43:21;;;;;;;24.23;15.25;;;8.90;99.90;;;;;;6245234;23;20022;-79
2021/12/18 13:45:55;;;;;;;25.33;14.85;;;8.90;99.90;;;;;;6245575;23;20007;-80
2021/12/18 13:48:24;;;;;;;25.55;14.00;;;8.90;99.90;;;;;;6245787;23;20382;-80
2021/12/18 13:51:04;;;;;;;28.00;15.10;;;8.90;99.90;;;;;;6245667;23;20003;-80